createdAt,value
2023-03-11T00:00:23.313Z,0.00
2023-03-11T00:01:23.340Z,0.00
2023-03-11T00:02:23.322Z,0.00
2023-03-11T00:03:23.419Z,0.00
2023-03-11T00:04:23.262Z,0.00
2023-03-11T00:05:23.381Z,0.00
2023-03-11T00:06:23.247Z,0.00
2023-03-11T00:07:23.236Z,0.00
2023-03-11T00:08:23.225Z,0.00
2023-03-11T00:09:23.217Z,0.00
2023-03-11T00:10:23.208Z,0.00
2023-03-11T00:11:23.201Z,0.00
2023-03-11T00:12:23.179Z,0.00
2023-03-11T00:13:23.181Z,0.00
2023-03-11T00:14:23.157Z,0.00
2023-03-11T00:15:23.226Z,0.00
2023-03-11T00:16:23.166Z,0.00
2023-03-11T00:17:23.138Z,0.00
2023-03-11T00:18:23.108Z,0.00
2023-03-11T00:19:23.108Z,0.00
2023-03-11T00:20:23.091Z,0.00
2023-03-11T00:21:23.104Z,0.00
2023-03-11T00:22:23.066Z,0.00
2023-03-11T00:23:23.061Z,0.00
2023-03-11T00:25:33.102Z,0.00
2023-03-11T00:26:34.084Z,0.00
2023-03-11T00:27:34.076Z,0.00
2023-03-11T00:28:34.520Z,0.00
2023-03-11T00:29:34.078Z,0.00
2023-03-11T00:30:34.096Z,0.00
2023-03-11T00:31:34.049Z,0.00
2023-03-11T00:32:34.048Z,0.00
2023-03-11T00:33:34.013Z,0.00
2023-03-11T00:34:34.001Z,0.00
2023-03-11T00:35:34.039Z,0.00
2023-03-11T00:36:33.981Z,0.00
2023-03-11T00:37:33.976Z,0.00
2023-03-11T00:38:34.000Z,0.00
2023-03-11T00:39:33.955Z,0.00
2023-03-11T00:40:33.927Z,0.00
2023-03-11T00:41:33.923Z,0.00
2023-03-11T00:42:33.909Z,0.00
2023-03-11T00:43:33.910Z,0.00
2023-03-11T00:44:33.902Z,0.00
2023-03-11T00:45:33.890Z,0.00
2023-03-11T00:46:33.912Z,0.00
2023-03-11T00:47:33.856Z,0.00
2023-03-11T00:48:33.846Z,0.00
2023-03-11T00:49:33.838Z,0.00
2023-03-11T00:50:33.850Z,0.00
2023-03-11T00:51:34.315Z,0.00
2023-03-11T00:52:33.805Z,0.00
2023-03-11T00:53:33.791Z,0.00
2023-03-11T00:54:33.773Z,0.00
2023-03-11T00:55:33.776Z,0.00
2023-03-11T00:56:33.764Z,0.00
2023-03-11T00:57:33.763Z,0.00
2023-03-11T00:58:33.730Z,0.00
2023-03-11T00:59:33.727Z,0.00
2023-03-11T01:00:33.726Z,0.00
2023-03-11T01:01:33.744Z,0.00
2023-03-11T01:02:33.688Z,0.00
2023-03-11T01:03:33.688Z,0.00
2023-03-11T01:04:33.689Z,0.00
2023-03-11T01:05:33.677Z,0.00
2023-03-11T01:06:44.910Z,0.00
2023-03-11T01:07:33.660Z,0.00
2023-03-11T01:08:33.626Z,0.00
2023-03-11T01:09:33.622Z,0.00
2023-03-11T01:10:33.609Z,0.00
2023-03-11T01:11:33.599Z,0.00
2023-03-11T01:12:33.587Z,0.00
2023-03-11T01:13:33.573Z,0.00
2023-03-11T01:14:33.554Z,0.00
2023-03-11T01:15:33.633Z,0.00
2023-03-11T01:16:33.544Z,0.00
2023-03-11T01:17:33.529Z,0.00
2023-03-11T01:18:33.516Z,0.00
2023-03-11T01:19:33.505Z,0.00
2023-03-11T01:20:33.494Z,0.00
2023-03-11T01:21:33.495Z,0.00
2023-03-11T01:22:33.471Z,0.00
2023-03-11T01:23:33.479Z,0.00
2023-03-11T01:24:33.445Z,0.00
2023-03-11T01:25:33.439Z,0.00
2023-03-11T01:26:33.440Z,0.00
2023-03-11T01:27:33.419Z,0.00
2023-03-11T01:28:33.413Z,0.00
2023-03-11T01:29:33.406Z,0.00
2023-03-11T01:30:33.383Z,0.00
2023-03-11T01:31:33.386Z,0.00
2023-03-11T01:32:33.423Z,0.00
2023-03-11T01:33:33.353Z,0.00
2023-03-11T01:34:33.364Z,0.00
2023-03-11T01:35:33.396Z,0.00
2023-03-11T01:36:33.328Z,0.00
2023-03-11T01:37:33.308Z,0.00
2023-03-11T01:38:33.295Z,0.00
2023-03-11T01:39:33.314Z,0.00
2023-03-11T01:40:33.279Z,0.00
2023-03-11T01:41:33.280Z,0.00
2023-03-11T01:42:33.257Z,0.00
2023-03-11T01:43:33.253Z,0.00
2023-03-11T01:44:33.234Z,0.00
2023-03-11T01:45:33.224Z,0.00
2023-03-11T01:46:33.286Z,0.00
2023-03-11T01:47:33.199Z,0.00
2023-03-11T01:48:33.182Z,0.00
2023-03-11T01:49:33.184Z,0.00
2023-03-11T01:50:33.161Z,0.00
2023-03-11T01:51:33.164Z,0.00
2023-03-11T01:52:33.140Z,0.00
2023-03-11T01:53:33.132Z,0.00
2023-03-11T01:54:33.129Z,0.00
2023-03-11T01:55:33.115Z,0.00
2023-03-11T01:56:33.098Z,0.00
2023-03-11T01:57:33.095Z,0.00
2023-03-11T01:58:33.080Z,0.00
2023-03-11T01:59:33.097Z,0.00
2023-03-11T02:00:33.050Z,0.00
2023-03-11T02:01:33.076Z,0.00
2023-03-11T02:02:33.092Z,0.00
2023-03-11T02:03:33.027Z,0.00
2023-03-11T02:04:33.016Z,0.00
2023-03-11T02:05:33.006Z,0.00
2023-03-11T02:06:32.993Z,0.00
2023-03-11T02:07:32.992Z,0.00
2023-03-11T02:08:32.968Z,0.00
2023-03-11T02:09:32.963Z,0.00
2023-03-11T02:10:32.958Z,0.00
2023-03-11T02:11:32.954Z,0.00
2023-03-11T02:12:32.922Z,0.00
2023-03-11T02:13:32.914Z,0.00
2023-03-11T02:14:32.900Z,0.00
2023-03-11T02:15:32.907Z,0.00
2023-03-11T02:16:32.897Z,0.00
2023-03-11T02:17:32.876Z,0.00
2023-03-11T02:18:32.869Z,0.00
2023-03-11T02:19:32.852Z,0.00
2023-03-11T02:20:32.846Z,0.00
2023-03-11T02:21:32.831Z,0.00
2023-03-11T02:22:32.815Z,0.00
2023-03-11T02:23:32.808Z,0.00
2023-03-11T02:24:32.795Z,0.00
2023-03-11T02:25:32.810Z,0.00
2023-03-11T02:26:32.770Z,0.00
2023-03-11T02:27:32.768Z,0.00
2023-03-11T02:28:32.759Z,0.00
2023-03-11T02:29:32.754Z,0.00
2023-03-11T02:30:32.738Z,0.00
2023-03-11T02:31:32.822Z,0.00
2023-03-11T02:32:32.726Z,0.00
2023-03-11T02:33:32.734Z,0.00
2023-03-11T02:34:32.691Z,0.00
2023-03-11T02:35:32.718Z,0.00
2023-03-11T02:36:32.676Z,0.00
2023-03-11T02:37:32.665Z,0.00
2023-03-11T02:38:32.653Z,0.00
2023-03-11T02:39:32.642Z,0.00
2023-03-11T02:40:33.131Z,0.00
2023-03-11T02:41:32.634Z,0.00
2023-03-11T02:42:32.611Z,0.00
2023-03-11T02:43:32.604Z,0.00
2023-03-11T02:44:32.596Z,0.00
2023-03-11T02:45:32.581Z,0.00
2023-03-11T02:46:32.591Z,0.00
2023-03-11T02:47:32.549Z,0.00
2023-03-11T02:48:32.555Z,0.00
2023-03-11T02:49:32.527Z,0.00
2023-03-11T02:50:32.508Z,0.00
2023-03-11T02:51:32.508Z,0.00
2023-03-11T02:52:32.490Z,0.00
2023-03-11T02:53:32.485Z,0.00
2023-03-11T02:54:32.479Z,0.00
2023-03-11T02:55:32.471Z,0.00
2023-03-11T02:56:32.455Z,0.00
2023-03-11T02:57:32.459Z,0.00
2023-03-11T02:58:32.429Z,0.00
2023-03-11T02:59:32.417Z,0.00
2023-03-11T03:00:32.467Z,0.00
2023-03-11T03:01:32.390Z,0.00
2023-03-11T03:02:32.376Z,0.00
2023-03-11T03:03:32.382Z,0.00
2023-03-11T03:04:32.424Z,0.00
2023-03-11T03:05:32.350Z,0.00
2023-03-11T03:06:32.350Z,0.00
2023-03-11T03:07:32.327Z,0.00
2023-03-11T03:08:32.325Z,0.00
2023-03-11T03:09:32.305Z,0.00
2023-03-11T03:10:32.296Z,0.00
2023-03-11T03:11:32.283Z,0.00
2023-03-11T03:12:32.274Z,0.00
2023-03-11T03:13:32.278Z,0.00
2023-03-11T03:14:32.254Z,0.00
2023-03-11T03:15:32.254Z,0.00
2023-03-11T03:16:32.254Z,0.00
2023-03-11T03:17:32.259Z,0.00
2023-03-11T03:18:32.219Z,0.00
2023-03-11T03:19:32.204Z,0.00
2023-03-11T03:20:32.189Z,0.00
2023-03-11T03:21:32.176Z,0.00
2023-03-11T03:22:32.171Z,0.00
2023-03-11T03:23:32.163Z,0.00
2023-03-11T03:24:32.159Z,0.00
2023-03-11T03:25:32.145Z,0.00
2023-03-11T03:26:32.121Z,0.00
2023-03-11T03:27:32.111Z,0.00
2023-03-11T03:28:32.105Z,0.00
2023-03-11T03:29:32.100Z,0.00
2023-03-11T03:30:32.087Z,0.00
2023-03-11T03:31:32.112Z,0.00
2023-03-11T03:32:32.105Z,0.00
2023-03-11T03:33:32.049Z,0.00
2023-03-11T03:34:32.052Z,0.00
2023-03-11T03:35:32.058Z,0.00
2023-03-11T03:36:32.027Z,0.00
2023-03-11T03:37:32.005Z,0.00
2023-03-11T03:38:32.010Z,0.00
2023-03-11T03:39:31.992Z,0.00
2023-03-11T03:40:31.977Z,0.00
2023-03-11T03:41:31.967Z,0.00
2023-03-11T03:42:31.958Z,0.00
2023-03-11T03:43:31.940Z,0.00
2023-03-11T03:44:31.950Z,0.00
2023-03-11T03:45:31.973Z,0.00
2023-03-11T03:46:31.917Z,0.00
2023-03-11T03:47:31.894Z,0.00
2023-03-11T03:48:31.911Z,0.00
2023-03-11T03:49:31.875Z,0.00
2023-03-11T03:50:31.873Z,0.00
2023-03-11T03:51:31.855Z,0.00
2023-03-11T03:52:31.850Z,0.00
2023-03-11T03:53:31.852Z,0.00
2023-03-11T03:54:31.835Z,0.00
2023-03-11T03:55:31.818Z,0.00
2023-03-11T03:56:31.810Z,0.00
2023-03-11T03:57:31.792Z,0.00
2023-03-11T03:58:31.796Z,0.00
2023-03-11T03:59:31.768Z,0.00
2023-03-11T04:00:31.779Z,0.00
2023-03-11T04:01:31.758Z,0.00
2023-03-11T04:02:32.320Z,0.00
2023-03-11T04:03:31.883Z,0.00
2023-03-11T04:04:31.731Z,0.00
2023-03-11T04:05:31.714Z,0.00
2023-03-11T04:06:31.698Z,0.00
2023-03-11T04:07:31.696Z,0.00
2023-03-11T04:08:31.682Z,0.00
2023-03-11T04:09:31.665Z,0.00
2023-03-11T04:10:31.671Z,0.00
2023-03-11T04:11:31.654Z,0.00
2023-03-11T04:12:31.634Z,0.00
2023-03-11T04:13:31.631Z,0.00
2023-03-11T04:14:31.615Z,0.00
2023-03-11T04:15:31.603Z,0.00
2023-03-11T04:16:31.617Z,0.00
2023-03-11T04:17:31.575Z,0.00
2023-03-11T04:18:31.577Z,0.00
2023-03-11T04:19:31.562Z,0.00
2023-03-11T04:20:31.552Z,0.00
2023-03-11T04:21:31.536Z,0.00
2023-03-11T04:22:31.560Z,0.00
2023-03-11T04:23:31.512Z,0.00
2023-03-11T04:24:31.512Z,0.00
2023-03-11T04:25:31.496Z,0.00
2023-03-11T04:26:31.501Z,0.00
2023-03-11T04:27:31.468Z,0.00
2023-03-11T04:28:31.478Z,0.00
2023-03-11T04:29:31.450Z,0.00
2023-03-11T04:30:31.603Z,0.00
2023-03-11T04:31:31.442Z,0.00
2023-03-11T04:32:31.485Z,0.00
2023-03-11T04:33:31.446Z,0.00
2023-03-11T04:34:31.405Z,0.00
2023-03-11T04:35:31.435Z,0.00
2023-03-11T04:36:31.397Z,0.00
2023-03-11T04:37:31.395Z,0.00
2023-03-11T04:38:31.393Z,0.00
2023-03-11T04:39:31.371Z,0.00
2023-03-11T04:40:31.343Z,0.00
2023-03-11T04:41:31.353Z,0.00
2023-03-11T04:42:31.315Z,0.00
2023-03-11T04:43:31.321Z,0.00
2023-03-11T04:44:31.301Z,0.00
2023-03-11T04:45:31.281Z,0.00
2023-03-11T04:46:31.326Z,0.00
2023-03-11T04:47:31.259Z,0.00
2023-03-11T04:48:31.271Z,0.00
2023-03-11T04:49:31.231Z,0.00
2023-03-11T04:50:31.229Z,0.00
2023-03-11T04:51:31.209Z,0.00
2023-03-11T04:52:31.323Z,0.00
2023-03-11T04:53:31.179Z,0.00
2023-03-11T04:54:31.183Z,0.00
2023-03-11T04:55:31.168Z,0.00
2023-03-11T04:56:31.172Z,0.00
2023-03-11T04:57:31.147Z,0.00
2023-03-11T04:58:31.129Z,0.00
2023-03-11T04:59:31.128Z,0.00
2023-03-11T05:00:31.108Z,0.00
2023-03-11T05:01:31.168Z,0.00
2023-03-11T05:02:31.092Z,0.00
2023-03-11T05:03:31.178Z,0.00
2023-03-11T05:04:31.163Z,0.00
2023-03-11T05:05:31.060Z,0.00
2023-03-11T05:06:31.053Z,0.00
2023-03-11T05:07:31.040Z,0.00
2023-03-11T05:08:31.024Z,0.00
2023-03-11T05:09:31.011Z,0.00
2023-03-11T05:10:32.072Z,0.00
2023-03-11T05:11:31.003Z,0.00
2023-03-11T05:12:30.981Z,0.00
2023-03-11T05:13:30.967Z,0.00
2023-03-11T05:14:30.955Z,0.00
2023-03-11T05:15:30.940Z,0.00
2023-03-11T05:16:30.945Z,0.00
2023-03-11T05:17:30.926Z,0.00
2023-03-11T05:18:30.929Z,0.00
2023-03-11T05:19:30.916Z,0.00
2023-03-11T05:20:30.891Z,0.00
2023-03-11T05:21:30.895Z,0.00
2023-03-11T05:22:30.892Z,0.00
2023-03-11T05:23:30.861Z,0.00
2023-03-11T05:24:30.859Z,0.00
2023-03-11T05:25:30.831Z,0.00
2023-03-11T05:26:30.857Z,0.00
2023-03-11T05:27:30.810Z,0.00
2023-03-11T05:28:30.801Z,0.00
2023-03-11T05:29:30.797Z,0.00
2023-03-11T05:30:30.790Z,0.00
2023-03-11T05:31:30.881Z,0.00
2023-03-11T05:32:30.802Z,0.00
2023-03-11T05:33:30.741Z,0.00
2023-03-11T05:34:30.753Z,0.00
2023-03-11T05:35:30.777Z,0.00
2023-03-11T05:36:30.725Z,0.00
2023-03-11T05:37:30.701Z,0.00
2023-03-11T05:38:30.696Z,0.00
2023-03-11T05:39:30.691Z,0.00
2023-03-11T05:40:30.682Z,0.00
2023-03-11T05:41:30.666Z,0.00
2023-03-11T05:42:30.653Z,0.00
2023-03-11T05:43:30.642Z,0.00
2023-03-11T05:44:30.636Z,0.00
2023-03-11T05:45:30.648Z,0.00
2023-03-11T05:46:30.667Z,0.00
2023-03-11T05:47:30.607Z,0.00
2023-03-11T05:48:30.594Z,0.00
2023-03-11T05:49:30.597Z,0.00
2023-03-11T05:50:30.591Z,0.00
2023-03-11T05:51:30.554Z,0.00
2023-03-11T05:52:30.572Z,0.00
2023-03-11T05:53:30.530Z,0.00
2023-03-11T05:54:30.527Z,0.00
2023-03-11T05:55:30.508Z,0.00
2023-03-11T05:56:30.511Z,0.00
2023-03-11T05:57:30.544Z,0.00
2023-03-11T05:58:30.587Z,0.00
2023-03-11T05:59:30.497Z,0.00
2023-03-11T06:00:30.466Z,0.00
2023-03-11T06:01:30.459Z,0.00
2023-03-11T06:02:30.444Z,0.00
2023-03-11T06:03:30.420Z,0.00
2023-03-11T06:04:30.498Z,0.00
2023-03-11T06:05:30.445Z,0.00
2023-03-11T06:06:30.397Z,0.00
2023-03-11T06:07:30.378Z,0.00
2023-03-11T06:08:30.377Z,0.00
2023-03-11T06:09:30.376Z,0.00
2023-03-11T06:10:30.349Z,0.00
2023-03-11T06:11:30.352Z,0.00
2023-03-11T06:12:30.339Z,0.00
2023-03-11T06:13:30.306Z,0.00
2023-03-11T06:14:30.316Z,0.00
2023-03-11T06:15:30.290Z,0.00
2023-03-11T06:16:30.331Z,0.00
2023-03-11T06:17:30.597Z,0.00
2023-03-11T06:18:30.272Z,0.00
2023-03-11T06:19:30.250Z,0.00
2023-03-11T06:20:30.244Z,0.00
2023-03-11T06:21:30.234Z,0.00
2023-03-11T06:22:30.231Z,0.00
2023-03-11T06:23:30.218Z,0.00
2023-03-11T06:24:30.202Z,0.00
2023-03-11T06:25:30.199Z,0.00
2023-03-11T06:26:30.179Z,0.00
2023-03-11T06:27:30.161Z,0.00
2023-03-11T06:28:30.160Z,0.00
2023-03-11T06:29:30.143Z,0.00
2023-03-11T06:30:30.140Z,0.00
2023-03-11T06:31:30.177Z,0.00
2023-03-11T06:32:30.142Z,0.00
2023-03-11T06:33:30.102Z,0.00
2023-03-11T06:34:30.090Z,0.00
2023-03-11T06:35:30.080Z,0.00
2023-03-11T06:36:30.069Z,0.00
2023-03-11T06:37:30.055Z,0.00
2023-03-11T06:38:30.042Z,0.00
2023-03-11T06:39:30.027Z,0.00
2023-03-11T06:40:30.022Z,0.00
2023-03-11T06:41:30.013Z,0.00
2023-03-11T06:42:30.020Z,0.00
2023-03-11T06:43:30.013Z,0.00
2023-03-11T06:44:29.979Z,0.00
2023-03-11T06:45:29.993Z,0.00
2023-03-11T06:46:29.971Z,0.00
2023-03-11T06:47:29.963Z,0.00
2023-03-11T06:48:29.948Z,0.00
2023-03-11T06:49:29.926Z,0.00
2023-03-11T06:50:29.915Z,0.00
2023-03-11T06:51:29.909Z,0.00
2023-03-11T06:52:29.898Z,0.00
2023-03-11T06:53:29.894Z,0.00
2023-03-11T06:54:29.872Z,0.00
2023-03-11T06:55:29.860Z,0.00
2023-03-11T06:56:29.857Z,0.00
2023-03-11T06:57:29.856Z,0.00
2023-03-11T06:58:29.840Z,0.00
2023-03-11T06:59:29.823Z,0.00
2023-03-11T07:00:29.821Z,0.00
2023-03-11T07:01:29.821Z,0.00
2023-03-11T07:02:29.860Z,0.00
2023-03-11T07:03:29.777Z,0.00
2023-03-11T07:04:29.783Z,0.00
2023-03-11T07:05:29.696Z,1.00
2023-03-11T07:06:29.748Z,0.00
2023-03-11T07:07:29.762Z,0.00
2023-03-11T07:08:29.732Z,0.00
2023-03-11T07:09:29.720Z,0.00
2023-03-11T07:10:29.715Z,0.00
2023-03-11T07:11:29.639Z,1.00
2023-03-11T07:12:29.982Z,0.00
2023-03-11T07:13:29.682Z,0.00
2023-03-11T07:14:29.667Z,0.00
2023-03-11T07:15:29.646Z,0.00
2023-03-11T07:16:29.704Z,0.00
2023-03-11T07:17:29.592Z,1.00
2023-03-11T07:18:29.619Z,0.00
2023-03-11T07:19:29.616Z,1.00
2023-03-11T07:20:29.684Z,0.00
2023-03-11T07:21:29.546Z,2.00
2023-03-11T07:22:29.532Z,2.00
2023-03-11T07:23:29.515Z,4.00
2023-03-11T07:24:29.518Z,4.00
2023-03-11T07:25:29.492Z,4.00
2023-03-11T07:26:29.485Z,3.00
2023-03-11T07:27:29.470Z,3.00
2023-03-11T07:28:29.464Z,9.00
2023-03-11T07:29:29.447Z,6.00
2023-03-11T07:30:29.591Z,6.00
2023-03-11T07:31:29.496Z,6.00
2023-03-11T07:32:29.461Z,5.00
2023-03-11T07:33:29.401Z,3.00
2023-03-11T07:34:29.394Z,5.00
2023-03-11T07:35:29.387Z,5.00
2023-03-11T07:36:29.373Z,3.00
2023-03-11T07:37:29.360Z,3.00
2023-03-11T07:38:29.345Z,6.00
2023-03-11T07:39:29.339Z,7.00
2023-03-11T07:40:29.401Z,0.00
2023-03-11T07:41:29.339Z,6.00
2023-03-11T07:42:29.304Z,7.00
2023-03-11T07:43:29.312Z,6.00
2023-03-11T07:44:29.293Z,6.00
2023-03-11T07:45:29.285Z,2.00
2023-03-11T07:46:29.335Z,2.00
2023-03-11T07:47:29.256Z,2.00
2023-03-11T07:48:29.239Z,5.00
2023-03-11T07:49:29.257Z,2.00
2023-03-11T07:50:29.296Z,3.00
2023-03-11T07:51:29.273Z,0.00
2023-03-11T07:52:29.250Z,0.00
2023-03-11T07:53:29.200Z,1.00
2023-03-11T07:54:29.171Z,1.00
2023-03-11T07:55:29.227Z,0.00
2023-03-11T07:56:29.179Z,1.00
2023-03-11T07:57:29.146Z,1.00
2023-03-11T07:58:29.161Z,1.00
2023-03-11T07:59:29.133Z,1.00
2023-03-11T08:00:29.248Z,0.00
2023-03-11T08:01:29.161Z,0.00
2023-03-11T08:02:29.180Z,0.00
2023-03-11T08:03:29.179Z,0.00
2023-03-11T08:04:29.145Z,0.00
2023-03-11T08:05:29.139Z,0.00
2023-03-11T08:06:29.082Z,1.00
2023-03-11T08:07:29.054Z,1.00
2023-03-11T08:08:29.120Z,0.00
2023-03-11T08:09:29.123Z,0.00
2023-03-11T08:10:29.030Z,1.00
2023-03-11T08:11:28.998Z,1.00
2023-03-11T08:12:29.076Z,0.00
2023-03-11T08:13:28.993Z,2.00
2023-03-11T08:14:28.977Z,2.00
2023-03-11T08:15:28.990Z,5.00
2023-03-11T08:16:28.943Z,9.00
2023-03-11T08:17:28.932Z,5.00
2023-03-11T08:18:28.929Z,3.00
2023-03-11T08:19:28.912Z,5.00
2023-03-11T08:20:28.898Z,5.00
2023-03-11T08:21:28.910Z,7.00
2023-03-11T08:22:28.900Z,5.00
2023-03-11T08:23:28.878Z,5.00
2023-03-11T08:24:28.863Z,8.00
2023-03-11T08:25:28.854Z,6.00
2023-03-11T08:26:28.842Z,5.00
2023-03-11T08:27:28.851Z,2.00
2023-03-11T08:28:28.817Z,3.00
2023-03-11T08:29:28.806Z,3.00
2023-03-11T08:30:34.764Z,4.00
2023-03-11T08:31:28.907Z,7.00
2023-03-11T08:32:28.798Z,6.00
2023-03-11T08:33:28.773Z,8.00
2023-03-11T08:34:28.763Z,8.00
2023-03-11T08:35:28.743Z,8.00
2023-03-11T08:36:28.742Z,10.00
2023-03-11T08:37:28.724Z,8.00
2023-03-11T08:38:28.733Z,8.00
2023-03-11T08:39:28.711Z,8.00
2023-03-11T08:40:28.689Z,8.00
2023-03-11T08:41:28.688Z,8.00
2023-03-11T08:42:28.670Z,8.00
2023-03-11T08:43:28.656Z,8.00
2023-03-11T08:44:28.643Z,14.00
2023-03-11T08:45:28.646Z,14.00
2023-03-11T08:46:28.755Z,14.00
2023-03-11T08:47:28.626Z,14.00
2023-03-11T08:48:28.605Z,14.00
2023-03-11T08:49:28.594Z,14.00
2023-03-11T08:50:28.594Z,8.00
2023-03-11T08:51:28.589Z,8.00
2023-03-11T08:52:28.563Z,8.00
2023-03-11T08:53:28.556Z,8.00
2023-03-11T08:54:28.553Z,8.00
2023-03-11T08:55:28.567Z,8.00
2023-03-11T08:56:28.532Z,7.00
2023-03-11T08:57:28.506Z,7.00
2023-03-11T08:58:28.523Z,3.00
2023-03-11T08:59:28.497Z,3.00
2023-03-11T09:00:28.469Z,3.00
2023-03-11T09:01:28.465Z,3.00
2023-03-11T09:02:28.474Z,7.00
2023-03-11T09:03:28.448Z,2.00
2023-03-11T09:04:28.464Z,3.00
2023-03-11T09:05:28.482Z,3.00
2023-03-11T09:06:28.414Z,3.00
2023-03-11T09:07:28.397Z,7.00
2023-03-11T09:08:28.411Z,6.00
2023-03-11T09:09:28.393Z,2.00
2023-03-11T09:10:28.366Z,6.00
2023-03-11T09:11:28.366Z,5.00
2023-03-11T09:12:28.342Z,1.00
2023-03-11T09:13:28.394Z,0.00
2023-03-11T09:14:28.389Z,0.00
2023-03-11T09:15:28.324Z,8.00
2023-03-11T09:16:28.337Z,8.00
2023-03-11T09:17:28.297Z,6.00
2023-03-11T09:18:28.294Z,6.00
2023-03-11T09:19:28.280Z,6.00
2023-03-11T09:20:28.260Z,6.00
2023-03-11T09:21:28.253Z,8.00
2023-03-11T09:22:28.239Z,4.00
2023-03-11T09:23:28.246Z,5.00
2023-03-11T09:24:28.226Z,1.00
2023-03-11T09:25:28.225Z,8.00
2023-03-11T09:26:28.202Z,8.00
2023-03-11T09:27:28.399Z,0.00
2023-03-11T09:28:28.184Z,1.00
2023-03-11T09:29:28.171Z,9.00
2023-03-11T09:30:28.155Z,5.00
2023-03-11T09:31:28.193Z,6.00
2023-03-11T09:32:28.188Z,5.00
2023-03-11T09:33:28.141Z,1.00
2023-03-11T09:34:28.123Z,3.00
2023-03-11T09:35:28.155Z,2.00
2023-03-11T09:36:28.103Z,6.00
2023-03-11T09:37:28.085Z,5.00
2023-03-11T09:38:28.070Z,1.00
2023-03-11T09:39:28.066Z,1.00
2023-03-11T09:40:28.116Z,0.00
2023-03-11T09:41:28.103Z,0.00
2023-03-11T09:42:28.085Z,0.00
2023-03-11T09:43:28.077Z,0.00
2023-03-11T09:44:28.062Z,0.00
2023-03-11T09:45:28.071Z,0.00
2023-03-11T09:46:28.129Z,0.00
2023-03-11T09:47:28.034Z,0.00
2023-03-11T09:48:28.039Z,0.00
2023-03-11T09:49:28.013Z,0.00
2023-03-11T09:50:28.002Z,0.00
2023-03-11T09:51:27.956Z,1.00
2023-03-11T09:52:27.923Z,2.00
2023-03-11T09:53:27.976Z,0.00
2023-03-11T09:54:27.967Z,0.00
2023-03-11T09:55:27.918Z,1.00
2023-03-11T09:56:27.883Z,1.00
2023-03-11T09:57:27.878Z,1.00
2023-03-11T09:58:27.861Z,1.00
2023-03-11T09:59:27.908Z,0.00
2023-03-11T10:00:27.871Z,1.00
2023-03-11T10:01:27.851Z,1.00
2023-03-11T10:02:28.129Z,1.00
2023-03-11T10:03:27.968Z,1.00
2023-03-11T10:04:27.857Z,0.00
2023-03-11T10:05:27.859Z,0.00
2023-03-11T10:06:27.834Z,0.00
2023-03-11T10:07:27.833Z,0.00
2023-03-11T10:08:27.810Z,0.00
2023-03-11T10:09:27.811Z,0.00
2023-03-11T10:10:27.802Z,0.00
2023-03-11T10:11:27.783Z,0.00
2023-03-11T10:12:27.774Z,0.00
2023-03-11T10:13:27.765Z,0.00
2023-03-11T10:14:27.767Z,0.00
2023-03-11T10:15:27.811Z,0.00
2023-03-11T10:16:27.773Z,0.00
2023-03-11T10:17:27.723Z,0.00
2023-03-11T10:18:27.721Z,0.00
2023-03-11T10:19:27.708Z,0.00
2023-03-11T10:20:27.687Z,0.00
2023-03-11T10:21:27.685Z,0.00
2023-03-11T10:22:27.664Z,0.00
2023-03-11T10:23:27.657Z,0.00
2023-03-11T10:24:27.650Z,0.00
2023-03-11T10:25:27.644Z,0.00
2023-03-11T10:26:27.645Z,0.00
2023-03-11T10:27:27.615Z,0.00
2023-03-11T10:28:27.601Z,0.00
2023-03-11T10:29:27.601Z,0.00
2023-03-11T10:30:27.585Z,0.00
2023-03-11T10:31:27.621Z,0.00
2023-03-11T10:32:27.913Z,0.00
2023-03-11T10:33:27.551Z,0.00
2023-03-11T10:34:27.549Z,0.00
2023-03-11T10:35:27.538Z,0.00
2023-03-11T10:36:27.513Z,0.00
2023-03-11T10:37:36.041Z,0.00
2023-03-11T10:38:27.506Z,0.00
2023-03-11T10:39:27.486Z,0.00
2023-03-11T10:40:27.471Z,0.00
2023-03-11T10:41:27.470Z,0.00
2023-03-11T10:42:27.452Z,0.00
2023-03-11T10:43:27.456Z,0.00
2023-03-11T10:44:27.438Z,0.00
2023-03-11T10:45:27.435Z,0.00
2023-03-11T10:46:27.412Z,0.00
2023-03-11T10:47:27.448Z,0.00
2023-03-11T10:48:27.390Z,0.00
2023-03-11T10:49:27.383Z,0.00
2023-03-11T10:50:27.378Z,0.00
2023-03-11T10:51:27.371Z,0.00
2023-03-11T10:52:27.357Z,0.00
2023-03-11T10:53:27.341Z,0.00
2023-03-11T10:54:27.347Z,0.00
2023-03-11T10:55:27.322Z,0.00
2023-03-11T10:56:27.316Z,0.00
2023-03-11T10:57:27.310Z,0.00
2023-03-11T10:58:27.287Z,0.00
2023-03-11T10:59:27.285Z,0.00
2023-03-11T11:00:27.262Z,0.00
2023-03-11T11:01:27.321Z,0.00
2023-03-11T11:02:27.243Z,0.00
2023-03-11T11:03:27.247Z,0.00
2023-03-11T11:04:27.253Z,0.00
2023-03-11T11:05:27.223Z,0.00
2023-03-11T11:06:27.224Z,0.00
2023-03-11T11:07:27.199Z,0.00
2023-03-11T11:08:27.193Z,0.00
2023-03-11T11:09:27.174Z,0.00
2023-03-11T11:10:27.172Z,0.00
2023-03-11T11:11:27.168Z,0.00
2023-03-11T11:12:27.141Z,0.00
2023-03-11T11:13:27.152Z,0.00
2023-03-11T11:14:27.124Z,0.00
2023-03-11T11:15:27.123Z,0.00
2023-03-11T11:16:27.157Z,0.00
2023-03-11T11:17:27.099Z,0.00
2023-03-11T11:18:27.087Z,0.00
2023-03-11T11:19:27.070Z,0.00
2023-03-11T11:20:27.134Z,0.00
2023-03-11T11:21:27.065Z,0.00
2023-03-11T11:22:27.049Z,0.00
2023-03-11T11:23:27.042Z,0.00
2023-03-11T11:24:27.019Z,0.00
2023-03-11T11:25:27.039Z,0.00
2023-03-11T11:26:27.002Z,0.00
2023-03-11T11:27:27.000Z,0.00
2023-03-11T11:28:26.976Z,0.00
2023-03-11T11:29:26.979Z,0.00
2023-03-11T11:30:26.955Z,0.00
2023-03-11T11:31:26.951Z,0.00
2023-03-11T11:32:26.967Z,0.00
2023-03-11T11:33:26.925Z,0.00
2023-03-11T11:34:26.946Z,0.00
2023-03-11T11:35:26.930Z,0.00
2023-03-11T11:36:26.888Z,0.00
2023-03-11T11:37:27.421Z,0.00
2023-03-11T11:38:26.870Z,0.00
2023-03-11T11:39:26.869Z,0.00
2023-03-11T11:40:26.860Z,0.00
2023-03-11T11:41:26.835Z,0.00
2023-03-11T11:42:26.827Z,0.00
2023-03-11T11:43:26.821Z,0.00
2023-03-11T11:44:26.802Z,0.00
2023-03-11T11:45:26.796Z,0.00
2023-03-11T11:46:26.833Z,0.00
2023-03-11T11:47:26.777Z,0.00
2023-03-11T11:48:26.768Z,0.00
2023-03-11T11:49:26.743Z,0.00
2023-03-11T11:50:26.751Z,0.00
2023-03-11T11:51:26.741Z,0.00
2023-03-11T11:52:26.730Z,0.00
2023-03-11T11:53:26.698Z,0.00
2023-03-11T11:54:26.692Z,0.00
2023-03-11T11:55:26.692Z,0.00
2023-03-11T11:56:26.671Z,0.00
2023-03-11T11:57:26.680Z,0.00
2023-03-11T11:58:26.658Z,0.00
2023-03-11T11:59:26.648Z,0.00
2023-03-11T12:00:26.634Z,0.00
2023-03-11T12:01:26.615Z,0.00
2023-03-11T12:02:26.636Z,0.00
2023-03-11T12:03:26.618Z,0.00
2023-03-11T12:04:26.592Z,0.00
2023-03-11T12:05:26.623Z,0.00
2023-03-11T12:06:26.571Z,0.00
2023-03-11T12:07:26.577Z,0.00
2023-03-11T12:08:26.550Z,0.00
2023-03-11T12:09:26.528Z,0.00
2023-03-11T12:10:26.593Z,0.00
2023-03-11T12:11:26.510Z,0.00
2023-03-11T12:12:26.514Z,0.00
2023-03-11T12:13:26.484Z,0.00
2023-03-11T12:14:26.480Z,0.00
2023-03-11T12:15:26.486Z,0.00
2023-03-11T12:16:26.468Z,0.00
2023-03-11T12:17:26.448Z,0.00
2023-03-11T12:18:26.447Z,0.00
2023-03-11T12:19:26.435Z,0.00
2023-03-11T12:20:26.415Z,0.00
2023-03-11T12:21:26.410Z,0.00
2023-03-11T12:22:26.412Z,0.00
2023-03-11T12:23:26.380Z,0.00
2023-03-11T12:24:26.377Z,0.00
2023-03-11T12:25:26.362Z,0.00
2023-03-11T12:26:26.371Z,0.00
2023-03-11T12:27:26.343Z,0.00
2023-03-11T12:28:26.340Z,0.00
2023-03-11T12:29:26.324Z,0.00
2023-03-11T12:30:26.312Z,0.00
2023-03-11T12:31:26.366Z,0.00
2023-03-11T12:32:26.336Z,0.00
2023-03-11T12:33:26.290Z,0.00
2023-03-11T12:34:26.293Z,0.00
2023-03-11T12:35:26.258Z,0.00
2023-03-11T12:36:26.253Z,0.00
2023-03-11T12:37:26.247Z,0.00
2023-03-11T12:38:26.231Z,0.00
2023-03-11T12:39:26.221Z,0.00
2023-03-11T12:40:26.212Z,0.00
2023-03-11T12:41:26.213Z,0.00
2023-03-11T12:42:26.277Z,0.00
2023-03-11T12:43:26.176Z,0.00
2023-03-11T12:44:26.162Z,0.00
2023-03-11T12:45:26.154Z,0.00
2023-03-11T12:46:26.216Z,0.00
2023-03-11T12:47:26.130Z,0.00
2023-03-11T12:48:26.125Z,0.00
2023-03-11T12:49:26.122Z,0.00
2023-03-11T12:50:26.098Z,0.00
2023-03-11T12:51:26.088Z,0.00
2023-03-11T12:52:26.088Z,0.00
2023-03-11T12:53:26.073Z,0.00
2023-03-11T12:54:26.059Z,0.00
2023-03-11T12:55:26.053Z,0.00
2023-03-11T12:56:26.037Z,0.00
2023-03-11T12:57:26.052Z,0.00
2023-03-11T12:58:26.024Z,0.00
2023-03-11T12:59:26.015Z,0.00
2023-03-11T13:00:25.992Z,0.00
2023-03-11T13:01:26.041Z,0.00
2023-03-11T13:02:25.972Z,0.00
2023-03-11T13:03:25.942Z,1.00
2023-03-11T13:04:25.964Z,0.00
2023-03-11T13:05:25.941Z,0.00
2023-03-11T13:06:25.879Z,1.00
2023-03-11T13:07:25.920Z,0.00
2023-03-11T13:08:25.923Z,0.00
2023-03-11T13:09:25.861Z,1.00
2023-03-11T13:10:25.893Z,0.00
2023-03-11T13:11:25.875Z,0.00
2023-03-11T13:12:25.871Z,0.00
2023-03-11T13:13:25.860Z,0.00
2023-03-11T13:14:25.863Z,0.00
2023-03-11T13:15:25.850Z,0.00
2023-03-11T13:16:25.871Z,0.00
2023-03-11T13:17:25.905Z,0.00
2023-03-11T13:18:25.826Z,0.00
2023-03-11T13:19:25.795Z,0.00